sensor_id;sensor_type;location;lat;lon;timestamp;P1;durP1;ratioP1;P2;durP2;ratioP2
57744;SDS011;58941;50.168;4.410;2024-03-06T00:00:28;2.30;;;1.60;;
57744;SDS011;58941;50.168;4.410;2024-03-06T00:02:53;1.77;;;1.20;;
57744;SDS011;58941;50.168;4.410;2024-03-06T00:05:20;1.67;;;1.58;;
57744;SDS011;58941;50.168;4.410;2024-03-06T00:07:45;2.40;;;1.40;;
57744;SDS011;58941;50.168;4.410;2024-03-06T00:10:11;1.83;;;1.40;;
57744;SDS011;58941;50.168;4.410;2024-03-06T00:12:36;2.55;;;1.33;;
57744;SDS011;58941;50.168;4.410;2024-03-06T00:15:02;1.30;;;1.20;;
57744;SDS011;58941;50.168;4.410;2024-03-06T00:17:28;1.73;;;1.42;;
57744;SDS011;58941;50.168;4.410;2024-03-06T00:19:53;1.73;;;1.30;;
57744;SDS011;58941;50.168;4.410;2024-03-06T00:22:18;1.63;;;1.40;;
57744;SDS011;58941;50.168;4.410;2024-03-06T00:24:44;1.50;;;1.40;;
57744;SDS011;58941;50.168;4.410;2024-03-06T00:27:09;2.35;;;1.52;;
57744;SDS011;58941;50.168;4.410;2024-03-06T00:29:35;2.70;;;1.67;;
57744;SDS011;58941;50.168;4.410;2024-03-06T00:32:03;2.22;;;1.40;;
57744;SDS011;58941;50.168;4.410;2024-03-06T00:34:28;2.85;;;1.67;;
57744;SDS011;58941;50.168;4.410;2024-03-06T00:36:54;1.60;;;1.30;;
57744;SDS011;58941;50.168;4.410;2024-03-06T00:39:20;2.08;;;1.40;;
57744;SDS011;58941;50.168;4.410;2024-03-06T00:41:45;1.95;;;1.60;;
57744;SDS011;58941;50.168;4.410;2024-03-06T00:44:11;2.22;;;1.38;;
57744;SDS011;58941;50.168;4.410;2024-03-06T00:46:36;1.90;;;1.70;;
57744;SDS011;58941;50.168;4.410;2024-03-06T00:49:02;2.30;;;1.30;;
57744;SDS011;58941;50.168;4.410;2024-03-06T00:51:28;2.88;;;1.80;;
57744;SDS011;58941;50.168;4.410;2024-03-06T00:53:54;2.45;;;1.70;;
57744;SDS011;58941;50.168;4.410;2024-03-06T00:56:19;1.77;;;1.63;;
57744;SDS011;58941;50.168;4.410;2024-03-06T00:58:44;2.97;;;1.65;;
57744;SDS011;58941;50.168;4.410;2024-03-06T01:01:10;2.25;;;1.80;;
57744;SDS011;58941;50.168;4.410;2024-03-06T01:03:37;2.85;;;1.58;;
57744;SDS011;58941;50.168;4.410;2024-03-06T01:06:02;1.85;;;1.42;;
57744;SDS011;58941;50.168;4.410;2024-03-06T01:08:28;2.15;;;1.63;;
57744;SDS011;58941;50.168;4.410;2024-03-06T01:10:53;1.60;;;1.30;;
57744;SDS011;58941;50.168;4.410;2024-03-06T01:13:19;1.88;;;1.48;;
57744;SDS011;58941;50.168;4.410;2024-03-06T01:15:45;2.10;;;1.30;;
57744;SDS011;58941;50.168;4.410;2024-03-06T01:18:11;2.05;;;1.38;;
57744;SDS011;58941;50.168;4.410;2024-03-06T01:20:37;1.92;;;1.60;;
57744;SDS011;58941;50.168;4.410;2024-03-06T01:23:02;1.63;;;1.42;;
57744;SDS011;58941;50.168;4.410;2024-03-06T01:25:28;1.52;;;1.30;;
57744;SDS011;58941;50.168;4.410;2024-03-06T01:27:54;1.50;;;1.30;;
57744;SDS011;58941;50.168;4.410;2024-03-06T01:30:20;1.85;;;1.58;;
57744;SDS011;58941;50.168;4.410;2024-03-06T01:32:46;1.98;;;1.70;;
57744;SDS011;58941;50.168;4.410;2024-03-06T01:35:11;2.03;;;1.38;;
57744;SDS011;58941;50.168;4.410;2024-03-06T01:37:37;1.65;;;1.50;;
57744;SDS011;58941;50.168;4.410;2024-03-06T01:40:02;1.75;;;1.65;;
57744;SDS011;58941;50.168;4.410;2024-03-06T01:42:30;2.95;;;1.55;;
57744;SDS011;58941;50.168;4.410;2024-03-06T01:44:56;1.73;;;1.40;;
57744;SDS011;58941;50.168;4.410;2024-03-06T01:47:21;1.55;;;1.45;;
57744;SDS011;58941;50.168;4.410;2024-03-06T01:49:47;2.25;;;1.70;;
57744;SDS011;58941;50.168;4.410;2024-03-06T01:52:13;2.40;;;1.60;;
57744;SDS011;58941;50.168;4.410;2024-03-06T01:54:40;2.17;;;1.50;;
57744;SDS011;58941;50.168;4.410;2024-03-06T01:57:06;2.05;;;1.65;;
57744;SDS011;58941;50.168;4.410;2024-03-06T01:59:32;1.60;;;1.45;;
57744;SDS011;58941;50.168;4.410;2024-03-06T02:01:57;1.40;;;1.30;;
57744;SDS011;58941;50.168;4.410;2024-03-06T02:04:24;3.50;;;1.70;;
57744;SDS011;58941;50.168;4.410;2024-03-06T02:06:53;1.77;;;1.50;;
57744;SDS011;58941;50.168;4.410;2024-03-06T02:09:19;2.22;;;1.60;;
57744;SDS011;58941;50.168;4.410;2024-03-06T02:11:45;1.92;;;1.40;;
57744;SDS011;58941;50.168;4.410;2024-03-06T02:14:10;2.00;;;1.65;;
57744;SDS011;58941;50.168;4.410;2024-03-06T02:16:36;2.25;;;1.52;;
57744;SDS011;58941;50.168;4.410;2024-03-06T02:19:04;2.38;;;1.38;;
57744;SDS011;58941;50.168;4.410;2024-03-06T02:21:30;1.50;;;1.40;;
57744;SDS011;58941;50.168;4.410;2024-03-06T02:23:55;2.60;;;1.73;;
57744;SDS011;58941;50.168;4.410;2024-03-06T02:26:21;1.30;;;1.20;;
57744;SDS011;58941;50.168;4.410;2024-03-06T02:28:47;1.83;;;1.42;;
57744;SDS011;58941;50.168;4.410;2024-03-06T02:31:13;1.90;;;1.50;;
57744;SDS011;58941;50.168;4.410;2024-03-06T02:33:39;2.70;;;1.60;;
57744;SDS011;58941;50.168;4.410;2024-03-06T02:36:05;1.73;;;1.30;;
57744;SDS011;58941;50.168;4.410;2024-03-06T02:38:31;1.63;;;1.45;;
57744;SDS011;58941;50.168;4.410;2024-03-06T02:40:57;2.03;;;1.50;;
57744;SDS011;58941;50.168;4.410;2024-03-06T02:43:22;3.78;;;1.60;;
57744;SDS011;58941;50.168;4.410;2024-03-06T02:45:48;2.40;;;1.60;;
57744;SDS011;58941;50.168;4.410;2024-03-06T02:48:13;1.55;;;1.45;;
57744;SDS011;58941;50.168;4.410;2024-03-06T02:50:39;1.55;;;1.42;;
57744;SDS011;58941;50.168;4.410;2024-03-06T02:53:04;3.15;;;1.40;;
57744;SDS011;58941;50.168;4.410;2024-03-06T02:55:30;2.00;;;1.60;;
57744;SDS011;58941;50.168;4.410;2024-03-06T02:57:55;1.77;;;1.23;;
57744;SDS011;58941;50.168;4.410;2024-03-06T03:00:21;2.33;;;1.40;;
57744;SDS011;58941;50.168;4.410;2024-03-06T03:02:47;1.60;;;1.50;;
57744;SDS011;58941;50.168;4.410;2024-03-06T03:05:12;1.50;;;1.40;;
57744;SDS011;58941;50.168;4.410;2024-03-06T03:07:38;1.88;;;1.65;;
57744;SDS011;58941;50.168;4.410;2024-03-06T03:10:03;1.70;;;1.60;;
57744;SDS011;58941;50.168;4.410;2024-03-06T03:12:29;2.10;;;1.40;;
57744;SDS011;58941;50.168;4.410;2024-03-06T03:14:56;2.13;;;1.60;;
57744;SDS011;58941;50.168;4.410;2024-03-06T03:17:21;1.92;;;1.33;;
57744;SDS011;58941;50.168;4.410;2024-03-06T03:19:47;1.77;;;1.50;;
57744;SDS011;58941;50.168;4.410;2024-03-06T03:22:12;1.95;;;1.30;;
57744;SDS011;58941;50.168;4.410;2024-03-06T03:24:38;1.92;;;1.40;;
57744;SDS011;58941;50.168;4.410;2024-03-06T03:27:05;2.20;;;1.65;;
57744;SDS011;58941;50.168;4.410;2024-03-06T03:29:31;1.60;;;1.40;;
57744;SDS011;58941;50.168;4.410;2024-03-06T03:31:56;1.80;;;1.42;;
57744;SDS011;58941;50.168;4.410;2024-03-06T03:34:22;2.25;;;1.50;;
57744;SDS011;58941;50.168;4.410;2024-03-06T03:36:48;1.83;;;1.58;;
57744;SDS011;58941;50.168;4.410;2024-03-06T03:39:14;1.50;;;1.40;;
57744;SDS011;58941;50.168;4.410;2024-03-06T03:41:43;2.03;;;1.58;;
57744;SDS011;58941;50.168;4.410;2024-03-06T03:44:09;2.72;;;1.50;;
57744;SDS011;58941;50.168;4.410;2024-03-06T03:46:34;2.03;;;1.55;;
57744;SDS011;58941;50.168;4.410;2024-03-06T03:49:00;2.00;;;1.60;;
57744;SDS011;58941;50.168;4.410;2024-03-06T03:51:25;1.88;;;1.50;;
57744;SDS011;58941;50.168;4.410;2024-03-06T03:53:51;2.25;;;1.50;;
57744;SDS011;58941;50.168;4.410;2024-03-06T03:56:18;1.60;;;1.50;;
57744;SDS011;58941;50.168;4.410;2024-03-06T03:58:43;1.30;;;1.20;;
57744;SDS011;58941;50.168;4.410;2024-03-06T04:01:10;2.60;;;1.50;;
57744;SDS011;58941;50.168;4.410;2024-03-06T04:03:36;1.65;;;1.40;;
57744;SDS011;58941;50.168;4.410;2024-03-06T04:06:01;1.55;;;1.35;;
57744;SDS011;58941;50.168;4.410;2024-03-06T04:08:27;2.05;;;1.52;;
57744;SDS011;58941;50.168;4.410;2024-03-06T04:10:53;1.80;;;1.48;;
57744;SDS011;58941;50.168;4.410;2024-03-06T04:13:19;1.75;;;1.60;;
57744;SDS011;58941;50.168;4.410;2024-03-06T04:15:45;2.03;;;1.45;;
57744;SDS011;58941;50.168;4.410;2024-03-06T04:18:11;1.55;;;1.30;;
57744;SDS011;58941;50.168;4.410;2024-03-06T04:20:37;1.77;;;1.45;;
57744;SDS011;58941;50.168;4.410;2024-03-06T04:23:02;2.20;;;1.55;;
57744;SDS011;58941;50.168;4.410;2024-03-06T04:25:28;1.55;;;1.45;;
57744;SDS011;58941;50.168;4.410;2024-03-06T04:27:54;1.73;;;1.58;;
57744;SDS011;58941;50.168;4.410;2024-03-06T04:30:19;2.72;;;1.38;;
57744;SDS011;58941;50.168;4.410;2024-03-06T04:32:45;2.42;;;1.27;;
57744;SDS011;58941;50.168;4.410;2024-03-06T04:35:11;1.35;;;1.25;;
57744;SDS011;58941;50.168;4.410;2024-03-06T04:37:37;2.17;;;1.52;;
57744;SDS011;58941;50.168;4.410;2024-03-06T04:40:03;2.05;;;1.50;;
57744;SDS011;58941;50.168;4.410;2024-03-06T04:42:33;2.67;;;1.52;;
57744;SDS011;58941;50.168;4.410;2024-03-06T04:45:01;1.60;;;1.45;;
57744;SDS011;58941;50.168;4.410;2024-03-06T04:47:28;1.50;;;1.40;;
57744;SDS011;58941;50.168;4.410;2024-03-06T04:49:53;2.13;;;1.45;;
57744;SDS011;58941;50.168;4.410;2024-03-06T04:52:19;1.75;;;1.60;;
57744;SDS011;58941;50.168;4.410;2024-03-06T04:54:44;1.65;;;1.30;;
57744;SDS011;58941;50.168;4.410;2024-03-06T04:57:10;3.30;;;1.48;;
57744;SDS011;58941;50.168;4.410;2024-03-06T04:59:36;1.45;;;1.35;;
57744;SDS011;58941;50.168;4.410;2024-03-06T05:02:02;2.33;;;1.20;;
57744;SDS011;58941;50.168;4.410;2024-03-06T05:04:28;1.92;;;1.60;;
57744;SDS011;58941;50.168;4.410;2024-03-06T05:06:54;2.45;;;1.55;;
57744;SDS011;58941;50.168;4.410;2024-03-06T05:09:21;2.10;;;1.40;;
57744;SDS011;58941;50.168;4.410;2024-03-06T05:11:47;1.98;;;1.35;;
57744;SDS011;58941;50.168;4.410;2024-03-06T05:14:16;1.77;;;1.42;;
57744;SDS011;58941;50.168;4.410;2024-03-06T05:16:42;1.63;;;1.35;;
57744;SDS011;58941;50.168;4.410;2024-03-06T05:19:08;2.58;;;1.45;;
57744;SDS011;58941;50.168;4.410;2024-03-06T05:21:36;1.88;;;1.40;;
57744;SDS011;58941;50.168;4.410;2024-03-06T05:24:01;1.70;;;1.40;;
57744;SDS011;58941;50.168;4.410;2024-03-06T05:26:27;1.80;;;1.42;;
57744;SDS011;58941;50.168;4.410;2024-03-06T05:28:53;2.28;;;1.45;;
57744;SDS011;58941;50.168;4.410;2024-03-06T05:31:19;2.65;;;1.38;;
57744;SDS011;58941;50.168;4.410;2024-03-06T05:33:47;1.83;;;1.30;;
57744;SDS011;58941;50.168;4.410;2024-03-06T05:36:14;2.55;;;1.58;;
57744;SDS011;58941;50.168;4.410;2024-03-06T05:38:40;2.42;;;1.40;;
57744;SDS011;58941;50.168;4.410;2024-03-06T05:41:06;1.77;;;1.63;;
57744;SDS011;58941;50.168;4.410;2024-03-06T05:43:31;1.55;;;1.25;;
57744;SDS011;58941;50.168;4.410;2024-03-06T05:45:57;1.73;;;1.42;;
57744;SDS011;58941;50.168;4.410;2024-03-06T05:48:22;2.25;;;1.55;;
57744;SDS011;58941;50.168;4.410;2024-03-06T05:50:49;1.40;;;1.30;;
57744;SDS011;58941;50.168;4.410;2024-03-06T05:53:15;1.73;;;1.20;;
57744;SDS011;58941;50.168;4.410;2024-03-06T05:55:40;1.50;;;1.30;;
57744;SDS011;58941;50.168;4.410;2024-03-06T05:58:06;2.13;;;1.52;;
57744;SDS011;58941;50.168;4.410;2024-03-06T06:00:31;1.40;;;1.20;;
57744;SDS011;58941;50.168;4.410;2024-03-06T06:02:57;2.03;;;1.52;;
57744;SDS011;58941;50.168;4.410;2024-03-06T06:05:22;1.60;;;1.27;;
57744;SDS011;58941;50.168;4.410;2024-03-06T06:07:49;2.38;;;1.38;;
57744;SDS011;58941;50.168;4.410;2024-03-06T06:10:15;1.67;;;1.10;;
57744;SDS011;58941;50.168;4.410;2024-03-06T06:12:40;1.80;;;1.30;;
57744;SDS011;58941;50.168;4.410;2024-03-06T06:15:06;1.92;;;1.55;;
57744;SDS011;58941;50.168;4.410;2024-03-06T06:17:33;2.38;;;1.73;;
57744;SDS011;58941;50.168;4.410;2024-03-06T06:20:00;1.65;;;1.27;;
57744;SDS011;58941;50.168;4.410;2024-03-06T06:22:28;1.75;;;1.48;;
57744;SDS011;58941;50.168;4.410;2024-03-06T06:24:54;1.77;;;1.35;;
57744;SDS011;58941;50.168;4.410;2024-03-06T06:27:21;1.58;;;1.33;;
57744;SDS011;58941;50.168;4.410;2024-03-06T06:29:47;2.35;;;1.40;;
57744;SDS011;58941;50.168;4.410;2024-03-06T06:32:12;2.45;;;1.50;;
57744;SDS011;58941;50.168;4.410;2024-03-06T06:34:37;1.40;;;1.30;;
57744;SDS011;58941;50.168;4.410;2024-03-06T06:37:03;1.25;;;1.10;;
57744;SDS011;58941;50.168;4.410;2024-03-06T06:39:29;1.58;;;1.40;;
57744;SDS011;58941;50.168;4.410;2024-03-06T06:41:54;1.77;;;1.38;;
57744;SDS011;58941;50.168;4.410;2024-03-06T06:44:20;1.83;;;1.30;;
57744;SDS011;58941;50.168;4.410;2024-03-06T06:46:45;1.70;;;1.10;;
57744;SDS011;58941;50.168;4.410;2024-03-06T06:49:11;1.33;;;1.10;;
57744;SDS011;58941;50.168;4.410;2024-03-06T06:51:36;1.63;;;1.10;;
57744;SDS011;58941;50.168;4.410;2024-03-06T06:54:02;1.45;;;1.27;;
57744;SDS011;58941;50.168;4.410;2024-03-06T06:56:29;1.73;;;1.25;;
57744;SDS011;58941;50.168;4.410;2024-03-06T06:58:56;1.52;;;1.38;;
57744;SDS011;58941;50.168;4.410;2024-03-06T07:01:21;2.15;;;1.17;;
57744;SDS011;58941;50.168;4.410;2024-03-06T07:03:47;2.17;;;1.20;;
57744;SDS011;58941;50.168;4.410;2024-03-06T07:06:13;1.60;;;1.38;;
57744;SDS011;58941;50.168;4.410;2024-03-06T07:08:38;1.17;;;1.08;;
57744;SDS011;58941;50.168;4.410;2024-03-06T07:11:04;1.63;;;1.20;;
57744;SDS011;58941;50.168;4.410;2024-03-06T07:13:30;1.73;;;1.10;;
57744;SDS011;58941;50.168;4.410;2024-03-06T07:15:56;1.52;;;1.15;;
57744;SDS011;58941;50.168;4.410;2024-03-06T07:18:21;1.85;;;1.27;;
57744;SDS011;58941;50.168;4.410;2024-03-06T07:20:47;1.73;;;1.33;;
57744;SDS011;58941;50.168;4.410;2024-03-06T07:23:12;1.50;;;1.20;;
57744;SDS011;58941;50.168;4.410;2024-03-06T07:25:40;1.10;;;1.00;;
57744;SDS011;58941;50.168;4.410;2024-03-06T07:28:05;1.80;;;1.30;;
57744;SDS011;58941;50.168;4.410;2024-03-06T07:30:31;1.27;;;1.10;;
57744;SDS011;58941;50.168;4.410;2024-03-06T07:32:56;1.67;;;1.30;;
57744;SDS011;58941;50.168;4.410;2024-03-06T07:35:22;1.75;;;1.20;;
57744;SDS011;58941;50.168;4.410;2024-03-06T07:37:48;1.20;;;1.10;;
57744;SDS011;58941;50.168;4.410;2024-03-06T07:40:14;2.42;;;1.38;;
57744;SDS011;58941;50.168;4.410;2024-03-06T07:42:40;1.60;;;1.20;;
57744;SDS011;58941;50.168;4.410;2024-03-06T07:45:06;1.52;;;1.27;;
57744;SDS011;58941;50.168;4.410;2024-03-06T07:47:34;2.05;;;1.17;;
57744;SDS011;58941;50.168;4.410;2024-03-06T07:50:00;1.20;;;1.10;;
57744;SDS011;58941;50.168;4.410;2024-03-06T07:52:25;2.22;;;1.20;;
57744;SDS011;58941;50.168;4.410;2024-03-06T07:54:51;1.35;;;1.05;;
57744;SDS011;58941;50.168;4.410;2024-03-06T07:57:16;1.33;;;1.23;;
57744;SDS011;58941;50.168;4.410;2024-03-06T07:59:43;1.75;;;1.40;;
57744;SDS011;58941;50.168;4.410;2024-03-06T08:02:09;1.50;;;1.30;;
57744;SDS011;58941;50.168;4.410;2024-03-06T08:04:34;1.45;;;1.05;;
57744;SDS011;58941;50.168;4.410;2024-03-06T08:07:00;1.23;;;1.08;;
57744;SDS011;58941;50.168;4.410;2024-03-06T08:09:26;1.40;;;1.27;;
57744;SDS011;58941;50.168;4.410;2024-03-06T08:11:54;1.98;;;1.40;;
57744;SDS011;58941;50.168;4.410;2024-03-06T08:14:20;1.30;;;1.20;;
57744;SDS011;58941;50.168;4.410;2024-03-06T08:16:45;2.67;;;1.10;;
57744;SDS011;58941;50.168;4.410;2024-03-06T08:19:11;1.55;;;1.33;;
57744;SDS011;58941;50.168;4.410;2024-03-06T08:21:38;1.17;;;1.08;;
57744;SDS011;58941;50.168;4.410;2024-03-06T08:24:03;1.45;;;1.15;;
57744;SDS011;58941;50.168;4.410;2024-03-06T08:26:29;1.80;;;1.38;;
57744;SDS011;58941;50.168;4.410;2024-03-06T08:28:54;3.15;;;1.40;;
57744;SDS011;58941;50.168;4.410;2024-03-06T08:31:20;2.25;;;1.40;;
57744;SDS011;58941;50.168;4.410;2024-03-06T08:33:46;2.47;;;1.70;;
57744;SDS011;58941;50.168;4.410;2024-03-06T08:36:12;3.60;;;1.90;;
57744;SDS011;58941;50.168;4.410;2024-03-06T08:38:39;3.20;;;1.70;;
57744;SDS011;58941;50.168;4.410;2024-03-06T08:41:06;3.70;;;1.80;;
57744;SDS011;58941;50.168;4.410;2024-03-06T08:43:31;3.90;;;1.60;;
57744;SDS011;58941;50.168;4.410;2024-03-06T08:45:57;3.75;;;1.70;;
57744;SDS011;58941;50.168;4.410;2024-03-06T08:48:22;3.80;;;2.00;;
57744;SDS011;58941;50.168;4.410;2024-03-06T08:50:48;5.10;;;2.45;;
57744;SDS011;58941;50.168;4.410;2024-03-06T08:53:13;6.50;;;2.38;;
57744;SDS011;58941;50.168;4.410;2024-03-06T08:55:40;4.40;;;2.10;;
57744;SDS011;58941;50.168;4.410;2024-03-06T08:58:06;5.38;;;2.10;;
57744;SDS011;58941;50.168;4.410;2024-03-06T09:00:31;4.65;;;1.80;;
57744;SDS011;58941;50.168;4.410;2024-03-06T09:02:57;3.67;;;1.90;;
57744;SDS011;58941;50.168;4.410;2024-03-06T09:05:22;2.30;;;1.73;;
57744;SDS011;58941;50.168;4.410;2024-03-06T09:07:48;4.32;;;2.10;;
57744;SDS011;58941;50.168;4.410;2024-03-06T09:10:13;5.50;;;2.33;;
57744;SDS011;58941;50.168;4.410;2024-03-06T09:12:39;4.82;;;1.83;;
57744;SDS011;58941;50.168;4.410;2024-03-06T09:15:05;4.68;;;1.80;;
57744;SDS011;58941;50.168;4.410;2024-03-06T09:17:32;4.25;;;2.20;;
57744;SDS011;58941;50.168;4.410;2024-03-06T09:19:59;6.25;;;2.20;;
57744;SDS011;58941;50.168;4.410;2024-03-06T09:22:29;3.97;;;1.95;;
57744;SDS011;58941;50.168;4.410;2024-03-06T09:24:54;3.67;;;1.73;;
57744;SDS011;58941;50.168;4.410;2024-03-06T09:27:21;3.65;;;1.90;;
57744;SDS011;58941;50.168;4.410;2024-03-06T09:29:47;3.53;;;1.88;;
57744;SDS011;58941;50.168;4.410;2024-03-06T09:32:12;4.00;;;2.10;;
57744;SDS011;58941;50.168;4.410;2024-03-06T09:34:41;3.05;;;1.67;;
57744;SDS011;58941;50.168;4.410;2024-03-06T09:37:07;3.80;;;1.90;;
57744;SDS011;58941;50.168;4.410;2024-03-06T09:39:32;3.63;;;1.80;;
57744;SDS011;58941;50.168;4.410;2024-03-06T09:41:59;8.57;;;4.80;;
57744;SDS011;58941;50.168;4.410;2024-03-06T09:44:24;14.88;;;6.88;;
57744;SDS011;58941;50.168;4.410;2024-03-06T09:46:50;12.93;;;6.63;;
57744;SDS011;58941;50.168;4.410;2024-03-06T09:49:17;8.98;;;5.20;;
57744;SDS011;58941;50.168;4.410;2024-03-06T09:51:43;10.32;;;5.40;;
57744;SDS011;58941;50.168;4.410;2024-03-06T09:54:12;12.10;;;4.60;;
57744;SDS011;58941;50.168;4.410;2024-03-06T09:56:44;9.52;;;4.45;;
57744;SDS011;58941;50.168;4.410;2024-03-06T09:59:12;8.88;;;4.72;;
57744;SDS011;58941;50.168;4.410;2024-03-06T10:01:40;8.80;;;5.15;;
57744;SDS011;58941;50.168;4.410;2024-03-06T10:04:28;12.10;;;5.18;;
57744;SDS011;58941;50.168;4.410;2024-03-06T10:06:53;8.23;;;4.35;;
57744;SDS011;58941;50.168;4.410;2024-03-06T10:09:20;10.60;;;4.47;;
57744;SDS011;58941;50.168;4.410;2024-03-06T10:11:46;12.88;;;3.90;;
57744;SDS011;58941;50.168;4.410;2024-03-06T10:14:11;8.30;;;4.07;;
57744;SDS011;58941;50.168;4.410;2024-03-06T10:16:37;8.77;;;4.05;;
57744;SDS011;58941;50.168;4.410;2024-03-06T10:19:15;7.53;;;3.97;;
57744;SDS011;58941;50.168;4.410;2024-03-06T10:21:47;8.52;;;4.60;;
57744;SDS011;58941;50.168;4.410;2024-03-06T10:24:27;7.53;;;3.97;;
57744;SDS011;58941;50.168;4.410;2024-03-06T10:26:56;8.82;;;3.85;;
57744;SDS011;58941;50.168;4.410;2024-03-06T10:29:23;8.27;;;3.80;;
57744;SDS011;58941;50.168;4.410;2024-03-06T10:34:20;6.38;;;3.70;;
57744;SDS011;58941;50.168;4.410;2024-03-06T10:36:48;5.68;;;3.30;;
57744;SDS011;58941;50.168;4.410;2024-03-06T10:39:16;5.55;;;3.60;;
57744;SDS011;58941;50.168;4.410;2024-03-06T10:41:44;6.47;;;3.28;;
57744;SDS011;58941;50.168;4.410;2024-03-06T10:44:12;5.57;;;3.20;;
57744;SDS011;58941;50.168;4.410;2024-03-06T10:46:44;7.68;;;3.13;;
57744;SDS011;58941;50.168;4.410;2024-03-06T10:49:12;3.85;;;2.88;;
57744;SDS011;58941;50.168;4.410;2024-03-06T10:51:42;6.43;;;3.05;;
57744;SDS011;58941;50.168;4.410;2024-03-06T10:54:09;5.95;;;3.22;;
57744;SDS011;58941;50.168;4.410;2024-03-06T10:56:40;7.30;;;3.60;;
57744;SDS011;58941;50.168;4.410;2024-03-06T10:59:10;5.05;;;2.88;;
57744;SDS011;58941;50.168;4.410;2024-03-06T11:01:37;6.80;;;2.75;;
57744;SDS011;58941;50.168;4.410;2024-03-06T11:04:04;6.00;;;2.75;;
57744;SDS011;58941;50.168;4.410;2024-03-06T11:06:30;5.43;;;3.10;;
57744;SDS011;58941;50.168;4.410;2024-03-06T11:08:56;4.03;;;2.25;;
57744;SDS011;58941;50.168;4.410;2024-03-06T11:11:22;6.13;;;2.45;;
57744;SDS011;58941;50.168;4.410;2024-03-06T11:13:48;3.95;;;2.45;;
57744;SDS011;58941;50.168;4.410;2024-03-06T11:16:14;2.95;;;1.80;;
57744;SDS011;58941;50.168;4.410;2024-03-06T11:23:33;3.25;;;2.03;;
57744;SDS011;58941;50.168;4.410;2024-03-06T11:26:00;3.10;;;1.98;;
57744;SDS011;58941;50.168;4.410;2024-03-06T11:28:26;4.07;;;1.90;;
57744;SDS011;58941;50.168;4.410;2024-03-06T11:30:56;4.82;;;1.83;;
57744;SDS011;58941;50.168;4.410;2024-03-06T11:33:23;3.80;;;1.73;;
57744;SDS011;58941;50.168;4.410;2024-03-06T11:38:36;5.60;;;2.00;;
57744;SDS011;58941;50.168;4.410;2024-03-06T11:41:04;2.55;;;1.50;;
57744;SDS011;58941;50.168;4.410;2024-03-06T11:43:29;5.15;;;2.30;;
57744;SDS011;58941;50.168;4.410;2024-03-06T11:46:07;3.88;;;1.80;;
57744;SDS011;58941;50.168;4.410;2024-03-06T11:48:34;3.30;;;1.83;;
57744;SDS011;58941;50.168;4.410;2024-03-06T11:51:01;3.78;;;1.60;;
57744;SDS011;58941;50.168;4.410;2024-03-06T11:53:30;6.25;;;2.15;;
57744;SDS011;58941;50.168;4.410;2024-03-06T11:55:57;3.15;;;1.80;;
57744;SDS011;58941;50.168;4.410;2024-03-06T11:58:23;4.57;;;1.80;;
57744;SDS011;58941;50.168;4.410;2024-03-06T12:00:49;3.45;;;1.75;;
57744;SDS011;58941;50.168;4.410;2024-03-06T12:03:14;4.25;;;1.50;;
57744;SDS011;58941;50.168;4.410;2024-03-06T12:05:40;3.88;;;1.90;;
57744;SDS011;58941;50.168;4.410;2024-03-06T12:08:07;2.88;;;1.67;;
57744;SDS011;58941;50.168;4.410;2024-03-06T12:10:38;4.47;;;1.70;;
57744;SDS011;58941;50.168;4.410;2024-03-06T12:13:04;2.17;;;1.50;;
57744;SDS011;58941;50.168;4.410;2024-03-06T12:15:30;3.03;;;1.70;;
57744;SDS011;58941;50.168;4.410;2024-03-06T12:17:56;3.65;;;1.40;;
57744;SDS011;58941;50.168;4.410;2024-03-06T12:20:23;3.03;;;1.50;;
57744;SDS011;58941;50.168;4.410;2024-03-06T12:22:50;5.68;;;1.40;;
57744;SDS011;58941;50.168;4.410;2024-03-06T12:27:46;5.60;;;2.30;;
57744;SDS011;58941;50.168;4.410;2024-03-06T12:30:12;2.17;;;1.42;;
57744;SDS011;58941;50.168;4.410;2024-03-06T12:32:38;4.93;;;2.05;;
57744;SDS011;58941;50.168;4.410;2024-03-06T12:35:04;2.28;;;1.48;;
57744;SDS011;58941;50.168;4.410;2024-03-06T12:37:30;5.13;;;1.60;;
57744;SDS011;58941;50.168;4.410;2024-03-06T12:39:59;3.00;;;1.50;;
57744;SDS011;58941;50.168;4.410;2024-03-06T12:42:25;3.17;;;1.48;;
57744;SDS011;58941;50.168;4.410;2024-03-06T12:44:51;4.65;;;1.48;;
57744;SDS011;58941;50.168;4.410;2024-03-06T12:47:17;3.53;;;1.55;;
57744;SDS011;58941;50.168;4.410;2024-03-06T12:49:42;4.25;;;1.40;;
57744;SDS011;58941;50.168;4.410;2024-03-06T12:52:08;2.80;;;1.42;;
57744;SDS011;58941;50.168;4.410;2024-03-06T12:54:34;4.03;;;1.20;;
57744;SDS011;58941;50.168;4.410;2024-03-06T12:57:00;10.30;;;1.40;;
57744;SDS011;58941;50.168;4.410;2024-03-06T12:59:25;3.80;;;1.48;;
57744;SDS011;58941;50.168;4.410;2024-03-06T13:01:50;3.45;;;1.40;;
57744;SDS011;58941;50.168;4.410;2024-03-06T13:04:16;4.15;;;1.50;;
57744;SDS011;58941;50.168;4.410;2024-03-06T13:06:42;4.78;;;1.30;;
57744;SDS011;58941;50.168;4.410;2024-03-06T13:09:07;3.97;;;1.13;;
57744;SDS011;58941;50.168;4.410;2024-03-06T13:11:33;2.42;;;1.27;;
57744;SDS011;58941;50.168;4.410;2024-03-06T13:13:59;4.97;;;1.90;;
57744;SDS011;58941;50.168;4.410;2024-03-06T13:16:26;2.25;;;1.10;;
57744;SDS011;58941;50.168;4.410;2024-03-06T13:18:51;1.75;;;1.08;;
57744;SDS011;58941;50.168;4.410;2024-03-06T13:21:19;2.40;;;1.40;;
57744;SDS011;58941;50.168;4.410;2024-03-06T13:23:45;3.65;;;1.42;;
57744;SDS011;58941;50.168;4.410;2024-03-06T13:26:10;2.97;;;1.48;;
57744;SDS011;58941;50.168;4.410;2024-03-06T13:28:38;3.88;;;1.38;;
57744;SDS011;58941;50.168;4.410;2024-03-06T13:31:04;3.83;;;1.30;;
57744;SDS011;58941;50.168;4.410;2024-03-06T13:33:32;2.10;;;1.27;;
57744;SDS011;58941;50.168;4.410;2024-03-06T13:35:58;2.88;;;1.58;;
57744;SDS011;58941;50.168;4.410;2024-03-06T13:38:23;2.17;;;1.25;;
57744;SDS011;58941;50.168;4.410;2024-03-06T13:40:49;1.73;;;1.10;;
57744;SDS011;58941;50.168;4.410;2024-03-06T13:43:14;2.45;;;1.00;;
57744;SDS011;58941;50.168;4.410;2024-03-06T13:45:50;5.07;;;1.00;;
57744;SDS011;58941;50.168;4.410;2024-03-06T13:48:15;3.63;;;1.20;;
57744;SDS011;58941;50.168;4.410;2024-03-06T13:50:44;1.33;;;1.10;;
57744;SDS011;58941;50.168;4.410;2024-03-06T13:53:10;2.13;;;1.20;;
57744;SDS011;58941;50.168;4.410;2024-03-06T13:55:35;2.40;;;1.20;;
57744;SDS011;58941;50.168;4.410;2024-03-06T13:58:01;2.65;;;1.40;;
57744;SDS011;58941;50.168;4.410;2024-03-06T14:00:27;2.65;;;1.33;;
57744;SDS011;58941;50.168;4.410;2024-03-06T14:02:52;3.22;;;1.35;;
57744;SDS011;58941;50.168;4.410;2024-03-06T14:05:18;2.60;;;1.20;;
57744;SDS011;58941;50.168;4.410;2024-03-06T14:07:50;2.28;;;1.15;;
57744;SDS011;58941;50.168;4.410;2024-03-06T14:10:15;4.30;;;1.20;;
57744;SDS011;58941;50.168;4.410;2024-03-06T14:12:44;1.58;;;1.30;;
57744;SDS011;58941;50.168;4.410;2024-03-06T14:15:10;2.95;;;1.33;;
57744;SDS011;58941;50.168;4.410;2024-03-06T14:17:40;3.00;;;1.00;;
57744;SDS011;58941;50.168;4.410;2024-03-06T14:20:06;1.73;;;1.25;;
57744;SDS011;58941;50.168;4.410;2024-03-06T14:22:32;2.78;;;1.20;;
57744;SDS011;58941;50.168;4.410;2024-03-06T14:24:58;4.00;;;1.23;;
57744;SDS011;58941;50.168;4.410;2024-03-06T14:27:23;2.85;;;1.40;;
57744;SDS011;58941;50.168;4.410;2024-03-06T14:29:49;2.80;;;1.10;;
57744;SDS011;58941;50.168;4.410;2024-03-06T14:32:14;1.85;;;1.00;;
57744;SDS011;58941;50.168;4.410;2024-03-06T14:34:40;1.50;;;1.17;;
57744;SDS011;58941;50.168;4.410;2024-03-06T14:37:09;2.97;;;1.00;;
57744;SDS011;58941;50.168;4.410;2024-03-06T14:39:35;2.13;;;1.20;;
57744;SDS011;58941;50.168;4.410;2024-03-06T14:42:00;2.67;;;1.10;;
57744;SDS011;58941;50.168;4.410;2024-03-06T14:44:26;1.55;;;1.00;;
57744;SDS011;58941;50.168;4.410;2024-03-06T14:46:51;2.63;;;1.05;;
57744;SDS011;58941;50.168;4.410;2024-03-06T14:49:17;2.40;;;0.82;;
57744;SDS011;58941;50.168;4.410;2024-03-06T14:51:43;3.53;;;1.20;;
57744;SDS011;58941;50.168;4.410;2024-03-06T14:54:08;4.30;;;1.17;;